Nikki — LG4948 — position and weather

sailwx.info

Track history (hours):
 
Tides and Currents Weather Stations Pressure Air Temp Water Temp Dewpoint Dewpoint Depression Visibility Wind Speed Wind Dir Waves Ship Positions

Nikki

Last reported at 2018-Jun-16 09:17 UTC. Time now 2018-Jun-23 10:17 UTC.
Position N 38°32' W 028°37'.

Length 14 m.

Type: Sailing vessel. MMSI: 258061420.

Date/timePositionNaut miles runAvg speedWind from/ knotsBaromVisibWave heightAir tempDewpointWater temp
2018-Jun-16 09:17N 38°32' W 028°37'  
2018-Jun-13 15:52N 38°32' W 028°37'0 0.0
2018-Jun-13 15:28N 38°32' W 028°37'0 0.7
2018-Jun-13 15:00N 38°32' W 028°37'1 1.9
2018-Jun-13 14:29N 38°31' W 028°37'1 2.8
2018-Jun-13 14:00N 38°31' W 028°39'1 2.6
2018-Jun-13 13:31N 38°31' W 028°40'1 2.2
2018-Jun-13 13:00N 38°31' W 028°42'1 2.2
2018-Jun-13 12:30N 38°31' W 028°43'1 2.1
2018-Jun-13 12:00N 38°31' W 028°44'1 1.9
2018-Jun-13 11:30N 38°31' W 028°46'1 1.8
2018-Jun-13 11:00N 38°31' W 028°47'1 2.2
2018-Jun-13 10:30N 38°31' W 028°48'1 2.2
2018-Jun-13 10:00N 38°32' W 028°49'1 2.3
2018-Jun-13 09:30N 38°32' W 028°51'1 2.4
2018-Jun-13 09:00N 38°33' W 028°52'1 2.6
2018-Jun-13 08:30N 38°33' W 028°54'2 3.1
2018-Jun-13 08:00N 38°33' W 028°56'2 4.2
2018-Jun-13 07:30N 38°34' W 028°58'3 5.4
2018-Jun-13 07:00N 38°35' W 029°01'3 5.6
2018-Jun-13 06:30N 38°36' W 029°05'3 5.5
2018-Jun-13 06:00N 38°38' W 029°08'3 5.0
2018-Jun-13 05:30N 38°39' W 029°11'3 5.3
2018-Jun-13 05:01N 38°40' W 029°13'3 5.9
2018-Jun-13 04:30N 38°42' W 029°17'3 6.3
2018-Jun-13 04:00N 38°43' W 029°20'3 6.4
2018-Jun-13 03:30N 38°44' W 029°24'3 6.2
2018-Jun-13 03:00N 38°46' W 029°28'3 6.8
2018-Jun-13 02:30N 38°47' W 029°32'4 7.1
2018-Jun-13 02:00N 38°48' W 029°36'3 6.1
2018-Jun-13 01:30N 38°50' W 029°40'3 6.7
2018-Jun-13 01:00N 38°51' W 029°44'3 6.3
2018-Jun-13 00:29N 38°52' W 029°47'3 6.0
2018-Jun-13 00:00N 38°53' W 029°51'3 6.4
2018-Jun-12 23:30N 38°55' W 029°54'3 6.1
2018-Jun-12 23:00N 38°56' W 029°58'3 6.3
2018-Jun-12 22:30N 38°58' W 030°02'3 6.4
2018-Jun-12 22:00N 38°59' W 030°05'4 7.1
2018-Jun-12 21:25N 39°01' W 030°10'4 7.2
2018-Jun-12 20:53N 39°02' W 030°15'  
Track history (hours):
 
Tides and Currents Weather Stations Pressure Air Temp Water Temp Dewpoint Dewpoint Depression Visibility Wind Speed Wind Dir Waves Ship Positions

Nikki

Last reported at 2018-Jun-16 09:17 UTC. Time now 2018-Jun-23 10:17 UTC.
Position N 38°32' W 028°37'.

Length 14 m.

Type: Sailing vessel. MMSI: 258061420.

Date/timePositionNaut miles runAvg speedWind from/ knotsBaromVisibWave heightAir tempDewpointWater temp
2018-Jun-16 09:17N 38°32' W 028°37'  
2018-Jun-13 15:52N 38°32' W 028°37'0 0.0
2018-Jun-13 15:28N 38°32' W 028°37'0 0.7
2018-Jun-13 15:00N 38°32' W 028°37'1 1.9
2018-Jun-13 14:29N 38°31' W 028°37'1 2.8
2018-Jun-13 14:00N 38°31' W 028°39'1 2.6
2018-Jun-13 13:31N 38°31' W 028°40'1 2.2
2018-Jun-13 13:00N 38°31' W 028°42'1 2.2
2018-Jun-13 12:30N 38°31' W 028°43'1 2.1
2018-Jun-13 12:00N 38°31' W 028°44'1 1.9
2018-Jun-13 11:30N 38°31' W 028°46'1 1.8
2018-Jun-13 11:00N 38°31' W 028°47'1 2.2
2018-Jun-13 10:30N 38°31' W 028°48'1 2.2
2018-Jun-13 10:00N 38°32' W 028°49'1 2.3
2018-Jun-13 09:30N 38°32' W 028°51'1 2.4
2018-Jun-13 09:00N 38°33' W 028°52'1 2.6
2018-Jun-13 08:30N 38°33' W 028°54'2 3.1
2018-Jun-13 08:00N 38°33' W 028°56'2 4.2
2018-Jun-13 07:30N 38°34' W 028°58'3 5.4
2018-Jun-13 07:00N 38°35' W 029°01'3 5.6
2018-Jun-13 06:30N 38°36' W 029°05'3 5.5
2018-Jun-13 06:00N 38°38' W 029°08'3 5.0
2018-Jun-13 05:30N 38°39' W 029°11'3 5.3
2018-Jun-13 05:01N 38°40' W 029°13'3 5.9
2018-Jun-13 04:30N 38°42' W 029°17'3 6.3
2018-Jun-13 04:00N 38°43' W 029°20'3 6.4
2018-Jun-13 03:30N 38°44' W 029°24'3 6.2
2018-Jun-13 03:00N 38°46' W 029°28'3 6.8
2018-Jun-13 02:30N 38°47' W 029°32'4 7.1
2018-Jun-13 02:00N 38°48' W 029°36'3 6.1
2018-Jun-13 01:30N 38°50' W 029°40'3 6.7
2018-Jun-13 01:00N 38°51' W 029°44'3 6.3
2018-Jun-13 00:29N 38°52' W 029°47'3 6.0
2018-Jun-13 00:00N 38°53' W 029°51'3 6.4
2018-Jun-12 23:30N 38°55' W 029°54'3 6.1
2018-Jun-12 23:00N 38°56' W 029°58'3 6.3
2018-Jun-12 22:30N 38°58' W 030°02'3 6.4
2018-Jun-12 22:00N 38°59' W 030°05'4 7.1
2018-Jun-12 21:25N 39°01' W 030°10'4 7.2
2018-Jun-12 20:53N 39°02' W 030°15'  

Dump ship's entire track history